Магнитогорск

СКИДКИ НА СМАРТФОНЫ!

Карта отелей и гостиниц, располагающихся рядом с аэропортом Магнитогорск :

Магнитогорск Башкортостан 53° 23' 35.2788" N, 58° 45' 20.2788" E
Код аэродрома ИКАО
USCM
Код аэродрома RU
УСЦМ
Координаты
N53.39313° E058.75563°
Превышение над уровнем моря
436
Основная полоса
01/19
Курс магнитный
003,9/183,9
Длина основной ВПП
3250
Ширина основной ВПП
45
Покрытие основной ВПП
Твёрдое (цементобетон)
Освещение ВПП
Постоянное
Тип: 
Аэродром
Класс аэродрома: 
Международный
Принадлежность: 
ГА
Статус: 
Действующий
Сайт: 
http://www.airmgn.ru
E-mail аэродрома: 
Airmagnitka@bk.ru, Airport@mgn.chel.su, aviamag@mail.ru
Страна: 
Россия
Регион: 
Башкортостан
Дополнительная информация: 
Горный. Оператор: ФГУП "Магнитогорское Авиапредприятие". Нкр.=(600)м.
Погода: 

Авиационная погода в Магнитогорске

Погода METAR: 
USCM 190400Z 03005MPS 9999 SCT040 12/04 Q1031 R36/090060 NOSIG RMK QFE734
Время наблюдения
2022-08-19T04:00:00Z
Температура C
12.0
Точка росы
4.0
Направление ветра
30
Скорость ветра (узлы)
10
Метео видимость
6.21
Облачность
SCT
Нижняя граница облачности (футы)
4000
Явления погоды
Условия полета
VFR
Аэропорт подробнее: 
SCT – разбросанная отдельная облачность;

Скидки на навигаторы!

Найти трансфер

С помощью этой формы Вы можете найти трансфер из аэропорта Магнитогорск в город, аэропорт или вокзал:

Погода в аэропортах:

Авиационная погода в Куусамо

Регион: 
Погода METAR: 
EFKS 190420Z AUTO 10004KT 060V140 1900 BR OVC001 16/16 Q1022
Время наблюдения
2022-08-19T04:20:00Z
Температура C
16.0
Точка росы
16.0
Направление ветра
100
Скорость ветра (узлы)
4
Метео видимость
1.18
Облачность
OVC
Нижняя граница облачности (футы)
100
Явления погоды
BR
Условия полета
LIFR
OVC – сплошная облачность;
BR – дымка (видимость от 1 до 9 км);

Авиационная погода в Братске

Регион: 
Погода METAR: 
UIBB 190400Z 25006MPS 220V290 9000 -SHRA BKN006 OVC019CB 09/09 Q1005 R30/290150 NOSIG RMK QBB190 MT OBSC QFE711/0948
Время наблюдения
2022-08-19T04:00:00Z
Температура C
9.0
Точка росы
9.0
Направление ветра
250
Скорость ветра (узлы)
12
Метео видимость
5.59
Облачность
BKN
OVC
Нижняя граница облачности (футы)
600
1900
Явления погоды
-SHRA
Условия полета
IFR
Аэропорт подробнее: 
BKN – значительная (рассеянная, разорванная) облачность; OVC – сплошная облачность;
-SHRA - слабый ливневой дождь;

Авиационная погода в Усть-Каменогорске

Регион: 
Погода METAR: 
UASK 190255Z 25002MPS 220V330 2100 BR BCFG SCT004 10/07 Q1015 TEMPO 0200 FG BKN002 RMK QBB120 QFE736/0981
Время наблюдения
2022-08-19T02:55:00Z
Температура C
10.0
Точка росы
7.0
Направление ветра
250
Скорость ветра (узлы)
4
Метео видимость
1.3
Облачность
SCT
Нижняя граница облачности (футы)
400
Явления погоды
BR BCFG
Условия полета
IFR
Аэропорт подробнее: 
SCT – разбросанная отдельная облачность;
FG – туман (небо не видно, температура воздуха выше нуля или ноль); BR – дымка (видимость от 1 до 9 км);

Авиационная погода в аэропорту Новый

Регион: 
Погода METAR: 
UHHH 190400Z 32003MPS 280V360 9999 -SHRA SCT033CB 18/17 Q0996 R23R/290045 NOSIG RMK QFE741/0988
Время наблюдения
2022-08-19T04:00:00Z
Температура C
18.0
Точка росы
17.0
Направление ветра
320
Скорость ветра (узлы)
6
Метео видимость
6.21
Облачность
SCT
Нижняя граница облачности (футы)
3300
Явления погоды
-SHRA
Условия полета
VFR
Аэропорт подробнее: 
SCT – разбросанная отдельная облачность;
-SHRA - слабый ливневой дождь;